Birmingham, Iowa
Current Conditions -  °F | °C
As of 5:55 AM on Tuesday 21 Oct 2014 (Local Time) from KFFL Reporting Station
NA  
Wind Chill: 37°   Ceiling: NA
Heat Index: 41°   Visibility: NA
Dew Point: 37°   Wind: 6mph
Humidity: 87%   Direction: 40°NE
Pressure: 30.11"   Gusts: NA
Location:  40.88°N, 91.95°W
Report Text: KFFL 211055Z AUTO 04005KT 05/03 A3011 RMK AO2
Loading
Personal Weather Stations






























Interactive Weather Map
Tropical Storm Tracking
New forecast layout! Learn more

10-Day Weather Forecast

Advertisements
Track Severe Weather on mobile